sensor_id;sensor_type;location;lat;lon;timestamp;temperature;humidity
28845;DHT22;15976;47.938;7.758;2023-05-19T00:01:22;14.80;57.20
28845;DHT22;15976;47.938;7.758;2023-05-19T00:03:55;14.70;57.30
28845;DHT22;15976;47.938;7.758;2023-05-19T00:06:31;14.70;57.30
28845;DHT22;15976;47.938;7.758;2023-05-19T00:09:04;14.70;57.30
28845;DHT22;15976;47.938;7.758;2023-05-19T00:11:32;14.70;57.30
28845;DHT22;15976;47.938;7.758;2023-05-19T00:13:59;14.70;57.30
28845;DHT22;15976;47.938;7.758;2023-05-19T00:16:28;14.70;57.20
28845;DHT22;15976;47.938;7.758;2023-05-19T00:19:00;14.70;57.40
28845;DHT22;15976;47.938;7.758;2023-05-19T00:21:28;14.70;57.60
28845;DHT22;15976;47.938;7.758;2023-05-19T00:23:55;14.70;57.60
28845;DHT22;15976;47.938;7.758;2023-05-19T00:26:23;14.60;57.50
28845;DHT22;15976;47.938;7.758;2023-05-19T00:28:57;14.60;57.60
28845;DHT22;15976;47.938;7.758;2023-05-19T00:31:24;14.60;57.60
28845;DHT22;15976;47.938;7.758;2023-05-19T00:33:52;14.60;57.50
28845;DHT22;15976;47.938;7.758;2023-05-19T00:36:19;14.60;57.50
28845;DHT22;15976;47.938;7.758;2023-05-19T00:38:46;14.50;57.70
28845;DHT22;15976;47.938;7.758;2023-05-19T00:41:13;14.50;57.80
28845;DHT22;15976;47.938;7.758;2023-05-19T00:43:40;14.40;57.80
28845;DHT22;15976;47.938;7.758;2023-05-19T00:46:07;14.30;58.00
28845;DHT22;15976;47.938;7.758;2023-05-19T00:48:34;14.30;58.30
28845;DHT22;15976;47.938;7.758;2023-05-19T00:51:02;14.20;58.60
28845;DHT22;15976;47.938;7.758;2023-05-19T00:53:32;14.20;58.80
28845;DHT22;15976;47.938;7.758;2023-05-19T00:56:00;14.10;59.00
28845;DHT22;15976;47.938;7.758;2023-05-19T00:58:29;14.00;58.90
28845;DHT22;15976;47.938;7.758;2023-05-19T01:00:58;14.00;58.90
28845;DHT22;15976;47.938;7.758;2023-05-19T01:03:31;13.90;59.00
28845;DHT22;15976;47.938;7.758;2023-05-19T01:06:02;13.90;59.40
28845;DHT22;15976;47.938;7.758;2023-05-19T01:08:34;13.80;59.30
28845;DHT22;15976;47.938;7.758;2023-05-19T01:11:06;13.80;59.30
28845;DHT22;15976;47.938;7.758;2023-05-19T01:13:35;13.70;59.50
28845;DHT22;15976;47.938;7.758;2023-05-19T01:24:33;13.60;59.70
28845;DHT22;15976;47.938;7.758;2023-05-19T01:32:35;13.60;59.70
28845;DHT22;15976;47.938;7.758;2023-05-19T01:35:04;13.50;59.70
28845;DHT22;15976;47.938;7.758;2023-05-19T01:37:31;13.50;59.90
28845;DHT22;15976;47.938;7.758;2023-05-19T01:39:59;13.50;60.20
28845;DHT22;15976;47.938;7.758;2023-05-19T01:42:28;13.50;60.60
28845;DHT22;15976;47.938;7.758;2023-05-19T01:44:56;13.50;60.80
28845;DHT22;15976;47.938;7.758;2023-05-19T01:47:25;13.50;61.10
28845;DHT22;15976;47.938;7.758;2023-05-19T01:49:52;13.50;61.40
28845;DHT22;15976;47.938;7.758;2023-05-19T01:52:19;13.50;61.60
28845;DHT22;15976;47.938;7.758;2023-05-19T01:54:47;13.40;61.60
28845;DHT22;15976;47.938;7.758;2023-05-19T02:00:30;13.50;61.90
28845;DHT22;15976;47.938;7.758;2023-05-19T02:03:58;13.50;61.60
28845;DHT22;15976;47.938;7.758;2023-05-19T02:05:55;13.50;61.70
28845;DHT22;15976;47.938;7.758;2023-05-19T02:08:28;13.40;61.60
28845;DHT22;15976;47.938;7.758;2023-05-19T02:11:01;13.40;61.40
28845;DHT22;15976;47.938;7.758;2023-05-19T02:13:34;13.40;61.50
28845;DHT22;15976;47.938;7.758;2023-05-19T02:16:04;13.40;61.20
28845;DHT22;15976;47.938;7.758;2023-05-19T02:18:32;13.40;61.40
28845;DHT22;15976;47.938;7.758;2023-05-19T02:21:00;13.30;61.40
28845;DHT22;15976;47.938;7.758;2023-05-19T02:23:27;13.40;61.50
28845;DHT22;15976;47.938;7.758;2023-05-19T02:25:56;13.40;61.60
28845;DHT22;15976;47.938;7.758;2023-05-19T02:28:24;13.40;61.60
28845;DHT22;15976;47.938;7.758;2023-05-19T02:30:54;13.40;61.70
28845;DHT22;15976;47.938;7.758;2023-05-19T02:33:21;13.40;61.70
28845;DHT22;15976;47.938;7.758;2023-05-19T02:35:52;13.30;61.70
28845;DHT22;15976;47.938;7.758;2023-05-19T02:38:19;13.40;61.80
28845;DHT22;15976;47.938;7.758;2023-05-19T02:40:47;13.30;61.90
28845;DHT22;15976;47.938;7.758;2023-05-19T02:43:14;13.30;62.00
28845;DHT22;15976;47.938;7.758;2023-05-19T02:45:41;13.30;62.20
28845;DHT22;15976;47.938;7.758;2023-05-19T02:48:08;13.30;62.20
28845;DHT22;15976;47.938;7.758;2023-05-19T02:50:35;13.30;62.40
28845;DHT22;15976;47.938;7.758;2023-05-19T02:53:03;13.20;62.50
28845;DHT22;15976;47.938;7.758;2023-05-19T02:55:30;13.20;62.70
28845;DHT22;15976;47.938;7.758;2023-05-19T02:57:57;13.20;62.70
28845;DHT22;15976;47.938;7.758;2023-05-19T03:00:24;13.10;62.70
28845;DHT22;15976;47.938;7.758;2023-05-19T03:02:51;13.10;62.70
28845;DHT22;15976;47.938;7.758;2023-05-19T03:05:18;13.10;63.00
28845;DHT22;15976;47.938;7.758;2023-05-19T03:07:58;13.10;63.10
28845;DHT22;15976;47.938;7.758;2023-05-19T03:10:26;13.00;63.20
28845;DHT22;15976;47.938;7.758;2023-05-19T03:12:53;13.00;63.50
28845;DHT22;15976;47.938;7.758;2023-05-19T03:15:20;13.00;63.50
28845;DHT22;15976;47.938;7.758;2023-05-19T03:17:49;12.90;63.50
28845;DHT22;15976;47.938;7.758;2023-05-19T03:20:16;12.90;63.80
28845;DHT22;15976;47.938;7.758;2023-05-19T03:22:44;12.90;63.90
28845;DHT22;15976;47.938;7.758;2023-05-19T03:25:11;12.90;64.00
28845;DHT22;15976;47.938;7.758;2023-05-19T03:27:38;12.90;64.10
28845;DHT22;15976;47.938;7.758;2023-05-19T03:30:05;12.90;64.30
28845;DHT22;15976;47.938;7.758;2023-05-19T03:32:38;12.80;64.40
28845;DHT22;15976;47.938;7.758;2023-05-19T03:35:06;12.80;64.60
28845;DHT22;15976;47.938;7.758;2023-05-19T03:37:33;12.80;64.80
28845;DHT22;15976;47.938;7.758;2023-05-19T03:40:01;12.80;64.90
28845;DHT22;15976;47.938;7.758;2023-05-19T03:42:29;12.70;65.00
28845;DHT22;15976;47.938;7.758;2023-05-19T03:44:56;12.70;65.20
28845;DHT22;15976;47.938;7.758;2023-05-19T03:47:23;12.70;65.40
28845;DHT22;15976;47.938;7.758;2023-05-19T03:50:02;12.70;65.50
28845;DHT22;15976;47.938;7.758;2023-05-19T03:52:49;12.60;65.50
28845;DHT22;15976;47.938;7.758;2023-05-19T03:55:27;12.60;65.60
28845;DHT22;15976;47.938;7.758;2023-05-19T03:57:55;12.60;65.70
28845;DHT22;15976;47.938;7.758;2023-05-19T04:00:23;12.60;65.80
28845;DHT22;15976;47.938;7.758;2023-05-19T04:02:50;12.50;65.80
28845;DHT22;15976;47.938;7.758;2023-05-19T04:05:17;12.50;65.80
28845;DHT22;15976;47.938;7.758;2023-05-19T04:07:44;12.40;65.70
28845;DHT22;15976;47.938;7.758;2023-05-19T04:10:12;12.40;65.80
28845;DHT22;15976;47.938;7.758;2023-05-19T04:12:39;12.50;65.90
28845;DHT22;15976;47.938;7.758;2023-05-19T04:15:07;12.40;65.90
28845;DHT22;15976;47.938;7.758;2023-05-19T04:17:37;12.40;65.90
28845;DHT22;15976;47.938;7.758;2023-05-19T04:20:05;12.40;65.90
28845;DHT22;15976;47.938;7.758;2023-05-19T04:22:32;12.40;65.90
28845;DHT22;15976;47.938;7.758;2023-05-19T04:24:59;12.30;65.90
28845;DHT22;15976;47.938;7.758;2023-05-19T04:27:27;12.30;65.80
28845;DHT22;15976;47.938;7.758;2023-05-19T04:29:56;12.30;65.80
28845;DHT22;15976;47.938;7.758;2023-05-19T04:32:24;12.30;65.80
28845;DHT22;15976;47.938;7.758;2023-05-19T04:34:52;12.30;65.80
28845;DHT22;15976;47.938;7.758;2023-05-19T04:37:24;12.20;65.80
28845;DHT22;15976;47.938;7.758;2023-05-19T04:39:52;12.20;65.70
28845;DHT22;15976;47.938;7.758;2023-05-19T04:42:23;12.20;65.80
28845;DHT22;15976;47.938;7.758;2023-05-19T04:44:53;12.20;65.80
28845;DHT22;15976;47.938;7.758;2023-05-19T04:47:22;12.10;65.80
28845;DHT22;15976;47.938;7.758;2023-05-19T04:49:54;12.10;65.80
28845;DHT22;15976;47.938;7.758;2023-05-19T04:52:21;12.10;65.80
28845;DHT22;15976;47.938;7.758;2023-05-19T04:54:50;12.10;65.80
28845;DHT22;15976;47.938;7.758;2023-05-19T04:57:18;12.10;65.90
28845;DHT22;15976;47.938;7.758;2023-05-19T04:59:46;12.10;66.10
28845;DHT22;15976;47.938;7.758;2023-05-19T05:02:14;12.00;66.10
28845;DHT22;15976;47.938;7.758;2023-05-19T05:04:43;12.00;66.20
28845;DHT22;15976;47.938;7.758;2023-05-19T05:07:12;12.10;66.20
28845;DHT22;15976;47.938;7.758;2023-05-19T05:09:40;12.10;66.10
28845;DHT22;15976;47.938;7.758;2023-05-19T05:12:08;12.10;66.10
28845;DHT22;15976;47.938;7.758;2023-05-19T05:14:38;12.10;66.10
28845;DHT22;15976;47.938;7.758;2023-05-19T05:17:07;12.10;66.10
28845;DHT22;15976;47.938;7.758;2023-05-19T05:19:35;12.10;66.00
28845;DHT22;15976;47.938;7.758;2023-05-19T05:22:03;12.10;66.10
28845;DHT22;15976;47.938;7.758;2023-05-19T05:24:35;12.10;66.90
28845;DHT22;15976;47.938;7.758;2023-05-19T05:27:03;12.10;66.10
28845;DHT22;15976;47.938;7.758;2023-05-19T05:29:32;12.10;66.10
28845;DHT22;15976;47.938;7.758;2023-05-19T05:32:01;12.10;66.10
28845;DHT22;15976;47.938;7.758;2023-05-19T05:34:28;12.10;66.10
28845;DHT22;15976;47.938;7.758;2023-05-19T05:36:55;12.20;66.20
28845;DHT22;15976;47.938;7.758;2023-05-19T05:39:22;12.20;66.10
28845;DHT22;15976;47.938;7.758;2023-05-19T05:41:49;12.20;66.10
28845;DHT22;15976;47.938;7.758;2023-05-19T05:44:16;12.20;66.10
28845;DHT22;15976;47.938;7.758;2023-05-19T05:46:44;12.30;66.10
28845;DHT22;15976;47.938;7.758;2023-05-19T05:49:13;12.30;66.00
28845;DHT22;15976;47.938;7.758;2023-05-19T05:51:43;12.30;65.90
28845;DHT22;15976;47.938;7.758;2023-05-19T05:54:28;12.40;65.80
28845;DHT22;15976;47.938;7.758;2023-05-19T05:56:55;12.40;65.70
28845;DHT22;15976;47.938;7.758;2023-05-19T05:59:23;12.50;65.70
28845;DHT22;15976;47.938;7.758;2023-05-19T06:01:50;12.60;65.50
28845;DHT22;15976;47.938;7.758;2023-05-19T06:04:18;12.60;65.30
28845;DHT22;15976;47.938;7.758;2023-05-19T06:06:47;12.70;65.20
28845;DHT22;15976;47.938;7.758;2023-05-19T06:09:19;12.80;65.10
28845;DHT22;15976;47.938;7.758;2023-05-19T06:11:46;12.90;64.70
28845;DHT22;15976;47.938;7.758;2023-05-19T06:14:13;13.00;64.60
28845;DHT22;15976;47.938;7.758;2023-05-19T06:17:06;13.10;64.40
28845;DHT22;15976;47.938;7.758;2023-05-19T06:19:33;13.20;64.30
28845;DHT22;15976;47.938;7.758;2023-05-19T06:22:01;13.20;64.00
28845;DHT22;15976;47.938;7.758;2023-05-19T06:24:29;13.30;63.90
28845;DHT22;15976;47.938;7.758;2023-05-19T06:26:56;13.40;63.60
28845;DHT22;15976;47.938;7.758;2023-05-19T06:29:24;13.60;63.40
28845;DHT22;15976;47.938;7.758;2023-05-19T06:31:53;13.60;63.00
28845;DHT22;15976;47.938;7.758;2023-05-19T06:34:20;13.60;63.00
28845;DHT22;15976;47.938;7.758;2023-05-19T06:36:47;13.70;62.90
28845;DHT22;15976;47.938;7.758;2023-05-19T06:39:17;13.70;62.80
28845;DHT22;15976;47.938;7.758;2023-05-19T06:41:44;13.80;62.50
28845;DHT22;15976;47.938;7.758;2023-05-19T06:44:24;13.80;62.50
28845;DHT22;15976;47.938;7.758;2023-05-19T06:46:51;13.80;62.50
28845;DHT22;15976;47.938;7.758;2023-05-19T06:49:18;13.90;62.30
28845;DHT22;15976;47.938;7.758;2023-05-19T06:51:47;13.90;62.20
28845;DHT22;15976;47.938;7.758;2023-05-19T06:54:14;14.00;62.20
28845;DHT22;15976;47.938;7.758;2023-05-19T06:56:42;14.00;62.00
28845;DHT22;15976;47.938;7.758;2023-05-19T06:59:09;14.10;61.80
28845;DHT22;15976;47.938;7.758;2023-05-19T07:01:37;14.20;61.60
28845;DHT22;15976;47.938;7.758;2023-05-19T07:04:04;14.30;61.40
28845;DHT22;15976;47.938;7.758;2023-05-19T07:06:32;14.40;61.30
28845;DHT22;15976;47.938;7.758;2023-05-19T07:08:59;14.50;61.20
28845;DHT22;15976;47.938;7.758;2023-05-19T07:11:27;14.70;60.80
28845;DHT22;15976;47.938;7.758;2023-05-19T07:13:55;15.00;60.40
28845;DHT22;15976;47.938;7.758;2023-05-19T07:16:26;15.10;59.90
28845;DHT22;15976;47.938;7.758;2023-05-19T07:18:54;15.30;59.50
28845;DHT22;15976;47.938;7.758;2023-05-19T07:21:21;15.50;59.20
28845;DHT22;15976;47.938;7.758;2023-05-19T07:23:49;15.70;58.70
28845;DHT22;15976;47.938;7.758;2023-05-19T07:26:16;15.90;58.40
28845;DHT22;15976;47.938;7.758;2023-05-19T07:28:43;16.10;57.80
28845;DHT22;15976;47.938;7.758;2023-05-19T07:31:10;16.40;57.10
28845;DHT22;15976;47.938;7.758;2023-05-19T07:33:37;16.60;56.60
28845;DHT22;15976;47.938;7.758;2023-05-19T07:36:04;16.70;56.30
28845;DHT22;15976;47.938;7.758;2023-05-19T07:38:31;16.90;56.00
28845;DHT22;15976;47.938;7.758;2023-05-19T07:41:01;17.10;55.60
28845;DHT22;15976;47.938;7.758;2023-05-19T07:43:28;17.40;55.10
28845;DHT22;15976;47.938;7.758;2023-05-19T07:45:55;17.70;54.40
28845;DHT22;15976;47.938;7.758;2023-05-19T07:48:23;18.00;53.70
28845;DHT22;15976;47.938;7.758;2023-05-19T07:50:51;18.20;53.00
28845;DHT22;15976;47.938;7.758;2023-05-19T07:53:19;18.30;52.50
28845;DHT22;15976;47.938;7.758;2023-05-19T07:55:47;18.50;52.20
28845;DHT22;15976;47.938;7.758;2023-05-19T07:58:14;18.60;51.70
28845;DHT22;15976;47.938;7.758;2023-05-19T08:00:41;18.90;51.40
28845;DHT22;15976;47.938;7.758;2023-05-19T08:03:09;19.20;50.80
28845;DHT22;15976;47.938;7.758;2023-05-19T08:05:36;19.50;50.40
28845;DHT22;15976;47.938;7.758;2023-05-19T08:08:04;19.70;49.90
28845;DHT22;15976;47.938;7.758;2023-05-19T08:10:31;20.00;49.40
28845;DHT22;15976;47.938;7.758;2023-05-19T08:12:58;20.30;48.70
28845;DHT22;15976;47.938;7.758;2023-05-19T08:15:25;20.60;48.10
28845;DHT22;15976;47.938;7.758;2023-05-19T08:17:53;20.80;47.40
28845;DHT22;15976;47.938;7.758;2023-05-19T08:20:20;21.00;47.00
28845;DHT22;15976;47.938;7.758;2023-05-19T08:22:48;21.20;46.50
28845;DHT22;15976;47.938;7.758;2023-05-19T08:25:15;21.40;46.10
28845;DHT22;15976;47.938;7.758;2023-05-19T08:27:43;21.50;45.90
28845;DHT22;15976;47.938;7.758;2023-05-19T08:30:11;21.70;45.50
28845;DHT22;15976;47.938;7.758;2023-05-19T08:32:38;22.00;44.90
28845;DHT22;15976;47.938;7.758;2023-05-19T08:35:06;22.20;44.20
28845;DHT22;15976;47.938;7.758;2023-05-19T08:37:33;22.40;43.90
28845;DHT22;15976;47.938;7.758;2023-05-19T08:40:03;22.70;43.30
28845;DHT22;15976;47.938;7.758;2023-05-19T08:42:31;23.00;42.70
28845;DHT22;15976;47.938;7.758;2023-05-19T08:45:02;23.40;42.00
28845;DHT22;15976;47.938;7.758;2023-05-19T08:47:30;23.40;42.00
28845;DHT22;15976;47.938;7.758;2023-05-19T08:50:05;23.80;41.30
28845;DHT22;15976;47.938;7.758;2023-05-19T08:53:00;24.00;40.80
28845;DHT22;15976;47.938;7.758;2023-05-19T08:55:57;24.70;40.10
28845;DHT22;15976;47.938;7.758;2023-05-19T08:58:27;25.30;38.70
28845;DHT22;15976;47.938;7.758;2023-05-19T09:00:55;25.40;37.80
28845;DHT22;15976;47.938;7.758;2023-05-19T09:03:23;25.00;37.90
28845;DHT22;15976;47.938;7.758;2023-05-19T09:05:52;24.40;38.90
28845;DHT22;15976;47.938;7.758;2023-05-19T09:08:19;24.00;39.80
28845;DHT22;15976;47.938;7.758;2023-05-19T09:10:46;23.50;40.70
28845;DHT22;15976;47.938;7.758;2023-05-19T09:13:13;23.10;41.50
28845;DHT22;15976;47.938;7.758;2023-05-19T09:15:41;22.80;42.20
28845;DHT22;15976;47.938;7.758;2023-05-19T09:18:11;23.00;42.40
28845;DHT22;15976;47.938;7.758;2023-05-19T09:20:40;23.70;41.10
28845;DHT22;15976;47.938;7.758;2023-05-19T09:23:15;24.30;40.20
28845;DHT22;15976;47.938;7.758;2023-05-19T09:28:22;24.50;39.40
28845;DHT22;15976;47.938;7.758;2023-05-19T09:31:00;24.20;39.90
28845;DHT22;15976;47.938;7.758;2023-05-19T09:33:29;24.00;40.20
28845;DHT22;15976;47.938;7.758;2023-05-19T09:35:57;23.60;40.60
28845;DHT22;15976;47.938;7.758;2023-05-19T09:38:24;23.50;41.10
28845;DHT22;15976;47.938;7.758;2023-05-19T09:40:55;23.50;41.50
28845;DHT22;15976;47.938;7.758;2023-05-19T09:43:23;23.60;41.60
28845;DHT22;15976;47.938;7.758;2023-05-19T09:46:02;24.00;41.00
28845;DHT22;15976;47.938;7.758;2023-05-19T09:48:30;24.30;40.40
28845;DHT22;15976;47.938;7.758;2023-05-19T09:50:58;24.30;39.80
28845;DHT22;15976;47.938;7.758;2023-05-19T09:53:26;24.10;39.90
28845;DHT22;15976;47.938;7.758;2023-05-19T09:55:56;24.20;39.90
28845;DHT22;15976;47.938;7.758;2023-05-19T09:58:24;24.00;39.60
28845;DHT22;15976;47.938;7.758;2023-05-19T10:00:52;23.60;40.30
28845;DHT22;15976;47.938;7.758;2023-05-19T10:03:23;23.40;41.00
28845;DHT22;15976;47.938;7.758;2023-05-19T10:05:52;23.40;41.00
28845;DHT22;15976;47.938;7.758;2023-05-19T10:08:20;23.20;41.00
28845;DHT22;15976;47.938;7.758;2023-05-19T10:10:48;23.10;41.30
28845;DHT22;15976;47.938;7.758;2023-05-19T10:13:15;22.90;41.50
28845;DHT22;15976;47.938;7.758;2023-05-19T10:15:43;22.80;41.60
28845;DHT22;15976;47.938;7.758;2023-05-19T10:18:20;22.70;41.70
28845;DHT22;15976;47.938;7.758;2023-05-19T10:20:49;22.60;42.00
28845;DHT22;15976;47.938;7.758;2023-05-19T10:23:17;22.40;42.30
28845;DHT22;15976;47.938;7.758;2023-05-19T10:25:45;22.30;42.60
28845;DHT22;15976;47.938;7.758;2023-05-19T10:28:17;22.20;43.00
28845;DHT22;15976;47.938;7.758;2023-05-19T10:30:49;22.10;43.40
28845;DHT22;15976;47.938;7.758;2023-05-19T10:33:20;21.90;43.20
28845;DHT22;15976;47.938;7.758;2023-05-19T10:38:55;21.70;43.80
28845;DHT22;15976;47.938;7.758;2023-05-19T10:44:33;21.60;43.90
28845;DHT22;15976;47.938;7.758;2023-05-19T10:47:06;21.50;44.00
28845;DHT22;15976;47.938;7.758;2023-05-19T10:49:35;21.50;44.10
28845;DHT22;15976;47.938;7.758;2023-05-19T10:52:03;21.40;44.10
28845;DHT22;15976;47.938;7.758;2023-05-19T10:54:40;21.30;44.40
28845;DHT22;15976;47.938;7.758;2023-05-19T10:57:13;21.30;44.40
28845;DHT22;15976;47.938;7.758;2023-05-19T10:59:42;21.40;44.30
28845;DHT22;15976;47.938;7.758;2023-05-19T11:02:48;21.40;44.30
28845;DHT22;15976;47.938;7.758;2023-05-19T11:05:27;21.50;44.00
28845;DHT22;15976;47.938;7.758;2023-05-19T11:07:57;21.50;44.30
28845;DHT22;15976;47.938;7.758;2023-05-19T11:10:31;21.50;44.30
28845;DHT22;15976;47.938;7.758;2023-05-19T11:12:58;21.50;44.30
28845;DHT22;15976;47.938;7.758;2023-05-19T11:15:27;21.80;44.20
28845;DHT22;15976;47.938;7.758;2023-05-19T11:17:54;21.90;43.80
28845;DHT22;15976;47.938;7.758;2023-05-19T11:20:27;22.00;43.60
28845;DHT22;15976;47.938;7.758;2023-05-19T11:23:08;22.20;43.30
28845;DHT22;15976;47.938;7.758;2023-05-19T11:25:46;22.40;43.10
28845;DHT22;15976;47.938;7.758;2023-05-19T11:28:21;22.80;42.30
28845;DHT22;15976;47.938;7.758;2023-05-19T11:30:56;22.90;42.00
28845;DHT22;15976;47.938;7.758;2023-05-19T11:33:24;22.90;41.80
28845;DHT22;15976;47.938;7.758;2023-05-19T11:35:55;22.80;41.70
28845;DHT22;15976;47.938;7.758;2023-05-19T11:38:27;22.60;42.00
28845;DHT22;15976;47.938;7.758;2023-05-19T11:40:54;22.50;41.70
28845;DHT22;15976;47.938;7.758;2023-05-19T11:43:26;22.40;41.60
28845;DHT22;15976;47.938;7.758;2023-05-19T11:45:53;22.50;42.30
28845;DHT22;15976;47.938;7.758;2023-05-19T11:48:22;22.50;41.70
28845;DHT22;15976;47.938;7.758;2023-05-19T11:50:50;22.70;41.70
28845;DHT22;15976;47.938;7.758;2023-05-19T11:53:18;22.80;41.20
28845;DHT22;15976;47.938;7.758;2023-05-19T11:55:47;23.00;40.90
28845;DHT22;15976;47.938;7.758;2023-05-19T11:58:15;23.30;40.60
28845;DHT22;15976;47.938;7.758;2023-05-19T12:00:43;23.90;39.90
28845;DHT22;15976;47.938;7.758;2023-05-19T12:03:12;24.30;39.20
28845;DHT22;15976;47.938;7.758;2023-05-19T12:05:42;24.60;38.90
28845;DHT22;15976;47.938;7.758;2023-05-19T12:08:11;24.50;38.70
28845;DHT22;15976;47.938;7.758;2023-05-19T12:10:39;24.30;39.00
28845;DHT22;15976;47.938;7.758;2023-05-19T12:13:06;24.00;39.40
28845;DHT22;15976;47.938;7.758;2023-05-19T12:15:35;23.80;39.40
28845;DHT22;15976;47.938;7.758;2023-05-19T12:18:03;23.50;39.80
28845;DHT22;15976;47.938;7.758;2023-05-19T12:20:31;23.30;40.20
28845;DHT22;15976;47.938;7.758;2023-05-19T12:23:01;23.20;40.20
28845;DHT22;15976;47.938;7.758;2023-05-19T12:25:29;22.90;40.40
28845;DHT22;15976;47.938;7.758;2023-05-19T12:27:59;22.90;40.60
28845;DHT22;15976;47.938;7.758;2023-05-19T12:30:27;22.70;40.60
28845;DHT22;15976;47.938;7.758;2023-05-19T12:32:55;22.70;40.80
28845;DHT22;15976;47.938;7.758;2023-05-19T12:35:30;22.70;40.70
28845;DHT22;15976;47.938;7.758;2023-05-19T12:38:03;22.70;40.70
28845;DHT22;15976;47.938;7.758;2023-05-19T12:40:33;22.70;40.80
28845;DHT22;15976;47.938;7.758;2023-05-19T12:43:02;22.60;40.80
28845;DHT22;15976;47.938;7.758;2023-05-19T12:45:34;22.70;40.90
28845;DHT22;15976;47.938;7.758;2023-05-19T12:48:10;22.70;41.00
28845;DHT22;15976;47.938;7.758;2023-05-19T12:50:38;22.80;41.00
28845;DHT22;15976;47.938;7.758;2023-05-19T12:53:10;22.70;41.20
28845;DHT22;15976;47.938;7.758;2023-05-19T12:55:42;22.90;41.20
28845;DHT22;15976;47.938;7.758;2023-05-19T12:58:10;23.00;40.80
28845;DHT22;15976;47.938;7.758;2023-05-19T13:00:42;23.10;40.80
28845;DHT22;15976;47.938;7.758;2023-05-19T13:03:15;23.00;40.60
28845;DHT22;15976;47.938;7.758;2023-05-19T13:05:47;22.90;40.60
28845;DHT22;15976;47.938;7.758;2023-05-19T13:08:16;22.70;40.60
28845;DHT22;15976;47.938;7.758;2023-05-19T13:10:45;22.50;41.10
28845;DHT22;15976;47.938;7.758;2023-05-19T13:13:12;22.40;41.50
28845;DHT22;15976;47.938;7.758;2023-05-19T13:15:44;22.30;41.70
28845;DHT22;15976;47.938;7.758;2023-05-19T13:18:12;22.30;41.80
28845;DHT22;15976;47.938;7.758;2023-05-19T13:20:43;22.30;41.70
28845;DHT22;15976;47.938;7.758;2023-05-19T13:23:11;22.20;41.80
28845;DHT22;15976;47.938;7.758;2023-05-19T13:25:39;22.10;41.80
28845;DHT22;15976;47.938;7.758;2023-05-19T13:28:07;21.90;41.80
28845;DHT22;15976;47.938;7.758;2023-05-19T13:30:36;21.90;42.00
28845;DHT22;15976;47.938;7.758;2023-05-19T13:33:04;21.90;42.10
28845;DHT22;15976;47.938;7.758;2023-05-19T13:35:32;21.90;42.00
28845;DHT22;15976;47.938;7.758;2023-05-19T13:38:07;21.90;42.00
28845;DHT22;15976;47.938;7.758;2023-05-19T13:40:38;21.90;42.20
28845;DHT22;15976;47.938;7.758;2023-05-19T13:43:05;21.80;42.30
28845;DHT22;15976;47.938;7.758;2023-05-19T13:45:33;21.80;42.50
28845;DHT22;15976;47.938;7.758;2023-05-19T13:48:00;21.90;42.40
28845;DHT22;15976;47.938;7.758;2023-05-19T13:50:27;21.90;42.30
28845;DHT22;15976;47.938;7.758;2023-05-19T13:52:55;21.80;42.40
28845;DHT22;15976;47.938;7.758;2023-05-19T13:55:22;21.80;42.40
28845;DHT22;15976;47.938;7.758;2023-05-19T13:57:49;21.80;42.50
28845;DHT22;15976;47.938;7.758;2023-05-19T14:00:17;21.80;42.60
28845;DHT22;15976;47.938;7.758;2023-05-19T14:02:44;21.80;42.50
28845;DHT22;15976;47.938;7.758;2023-05-19T14:05:12;21.80;42.70
28845;DHT22;15976;47.938;7.758;2023-05-19T14:07:39;21.90;42.80
28845;DHT22;15976;47.938;7.758;2023-05-19T14:10:06;22.00;42.60
28845;DHT22;15976;47.938;7.758;2023-05-19T14:12:34;22.00;42.50
28845;DHT22;15976;47.938;7.758;2023-05-19T14:15:21;22.00;42.30
28845;DHT22;15976;47.938;7.758;2023-05-19T14:17:50;21.90;42.20
28845;DHT22;15976;47.938;7.758;2023-05-19T14:20:19;21.90;42.40
28845;DHT22;15976;47.938;7.758;2023-05-19T14:22:46;21.80;42.50
28845;DHT22;15976;47.938;7.758;2023-05-19T14:25:13;21.70;42.70
28845;DHT22;15976;47.938;7.758;2023-05-19T14:27:40;21.80;42.70
28845;DHT22;15976;47.938;7.758;2023-05-19T14:30:07;21.80;42.60
28845;DHT22;15976;47.938;7.758;2023-05-19T14:32:35;21.80;42.60
28845;DHT22;15976;47.938;7.758;2023-05-19T14:35:02;21.80;42.70
28845;DHT22;15976;47.938;7.758;2023-05-19T14:37:29;21.70;42.70
28845;DHT22;15976;47.938;7.758;2023-05-19T14:39:57;21.70;42.80
28845;DHT22;15976;47.938;7.758;2023-05-19T14:42:24;21.80;42.80
28845;DHT22;15976;47.938;7.758;2023-05-19T14:44:51;21.80;42.70
28845;DHT22;15976;47.938;7.758;2023-05-19T14:47:18;21.70;42.80
28845;DHT22;15976;47.938;7.758;2023-05-19T14:49:46;21.50;43.10
28845;DHT22;15976;47.938;7.758;2023-05-19T14:52:13;21.50;43.40
28845;DHT22;15976;47.938;7.758;2023-05-19T14:54:40;21.50;43.50
28845;DHT22;15976;47.938;7.758;2023-05-19T14:57:07;21.40;43.60
28845;DHT22;15976;47.938;7.758;2023-05-19T14:59:37;21.30;43.80
28845;DHT22;15976;47.938;7.758;2023-05-19T15:02:04;21.30;43.80
28845;DHT22;15976;47.938;7.758;2023-05-19T15:04:31;21.20;43.80
28845;DHT22;15976;47.938;7.758;2023-05-19T15:06:58;21.10;43.90
28845;DHT22;15976;47.938;7.758;2023-05-19T15:09:28;21.10;44.10
28845;DHT22;15976;47.938;7.758;2023-05-19T15:11:55;21.00;44.10
28845;DHT22;15976;47.938;7.758;2023-05-19T15:14:22;21.00;44.20
28845;DHT22;15976;47.938;7.758;2023-05-19T15:16:49;20.90;44.40
28845;DHT22;15976;47.938;7.758;2023-05-19T15:19:17;20.80;44.70
28845;DHT22;15976;47.938;7.758;2023-05-19T15:21:45;20.80;44.90
28845;DHT22;15976;47.938;7.758;2023-05-19T15:24:12;20.80;44.80
28845;DHT22;15976;47.938;7.758;2023-05-19T15:26:39;20.80;44.90
28845;DHT22;15976;47.938;7.758;2023-05-19T15:29:06;20.70;45.00
28845;DHT22;15976;47.938;7.758;2023-05-19T15:31:33;20.60;44.80
28845;DHT22;15976;47.938;7.758;2023-05-19T15:34:03;20.50;45.00
28845;DHT22;15976;47.938;7.758;2023-05-19T15:36:30;20.40;45.20
28845;DHT22;15976;47.938;7.758;2023-05-19T15:38:57;20.20;45.40
28845;DHT22;15976;47.938;7.758;2023-05-19T15:41:24;20.20;45.50
28845;DHT22;15976;47.938;7.758;2023-05-19T15:43:52;20.10;45.60
28845;DHT22;15976;47.938;7.758;2023-05-19T15:46:19;20.10;46.00
28845;DHT22;15976;47.938;7.758;2023-05-19T15:48:46;20.00;46.00
28845;DHT22;15976;47.938;7.758;2023-05-19T15:51:13;19.90;46.00
28845;DHT22;15976;47.938;7.758;2023-05-19T15:53:40;19.90;46.20
28845;DHT22;15976;47.938;7.758;2023-05-19T15:56:07;19.70;46.30
28845;DHT22;15976;47.938;7.758;2023-05-19T15:58:34;19.60;46.60
28845;DHT22;15976;47.938;7.758;2023-05-19T16:01:01;19.50;46.70
28845;DHT22;15976;47.938;7.758;2023-05-19T16:03:29;19.40;46.80
28845;DHT22;15976;47.938;7.758;2023-05-19T16:05:56;19.40;47.10
28845;DHT22;15976;47.938;7.758;2023-05-19T16:08:24;19.30;47.20